createdAt,value
2019-01-04T00:01:08.279Z,0.73
2019-01-04T00:03:35.534Z,0.77
2019-01-04T00:06:02.779Z,0.63
2019-01-04T00:08:30.028Z,0.70
2019-01-04T00:10:57.263Z,0.70
2019-01-04T00:13:24.492Z,0.77
2019-01-04T00:15:51.733Z,0.80
2019-01-04T00:18:19.065Z,0.83
2019-01-04T00:20:46.348Z,0.80
2019-01-04T00:23:13.594Z,0.80
2019-01-04T00:25:40.862Z,0.70
2019-01-04T00:28:08.076Z,1.20
2019-01-04T00:30:35.280Z,1.10
2019-01-04T00:33:02.594Z,1.10
2019-01-04T00:35:29.821Z,1.03
2019-01-04T00:37:57.407Z,1.00
2019-01-04T00:40:24.643Z,1.00
2019-01-04T00:42:51.926Z,1.10
2019-01-04T00:45:19.141Z,1.30
2019-01-04T00:47:46.391Z,1.13
2019-01-04T00:50:13.771Z,1.10
2019-01-04T00:52:40.987Z,0.80
2019-01-04T00:55:22.274Z,0.87
2019-01-04T00:58:57.825Z,0.70
2019-01-04T01:01:53.544Z,0.80
2019-01-04T01:04:51.364Z,0.90
2019-01-04T01:07:40.308Z,0.70
2019-01-04T01:10:44.216Z,0.60
2019-01-04T01:14:01.055Z,0.70
2019-01-04T01:17:04.802Z,0.90
2019-01-04T01:20:19.892Z,0.60
2019-01-04T01:23:27.746Z,0.80
2019-01-04T01:26:36.386Z,0.70
2019-01-04T01:29:40.226Z,0.70
2019-01-04T01:32:51.196Z,0.70
2019-01-04T01:35:55.706Z,0.80
2019-01-04T01:38:59.406Z,0.80
2019-01-04T01:42:16.407Z,0.67
2019-01-04T01:45:21.095Z,0.60
2019-01-04T01:47:56.044Z,0.80
2019-01-04T01:51:17.325Z,0.73
2019-01-04T01:53:45.329Z,0.87
2019-01-04T01:56:12.583Z,0.90
2019-01-04T01:58:39.882Z,1.03
2019-01-04T02:01:07.158Z,0.90
2019-01-04T02:03:34.488Z,0.90
2019-01-04T02:06:01.835Z,0.93
2019-01-04T02:08:29.295Z,0.90
2019-01-04T02:10:56.615Z,0.70
2019-01-04T02:13:23.902Z,0.97
2019-01-04T02:15:51.161Z,1.00
2019-01-04T02:18:18.400Z,0.90
2019-01-04T02:20:45.709Z,1.00
2019-01-04T02:23:12.937Z,0.80
2019-01-04T02:25:40.161Z,1.00
2019-01-04T02:28:07.423Z,0.60
2019-01-04T02:30:34.671Z,0.90
2019-01-04T02:33:01.894Z,0.77
2019-01-04T02:35:29.155Z,0.70
2019-01-04T02:37:56.375Z,0.70
2019-01-04T02:40:23.604Z,0.67
2019-01-04T02:42:50.863Z,0.63
2019-01-04T02:45:18.083Z,0.97
2019-01-04T02:47:45.301Z,0.70
2019-01-04T02:50:12.549Z,0.70
2019-01-04T02:52:39.757Z,0.80
2019-01-04T02:55:06.986Z,1.00
2019-01-04T02:57:34.220Z,1.00
2019-01-04T03:00:01.522Z,0.80
2019-01-04T03:02:28.777Z,1.00
2019-01-04T03:04:56.056Z,1.30
2019-01-04T03:07:23.275Z,0.80
2019-01-04T03:09:50.550Z,1.10
2019-01-04T03:12:17.769Z,1.00
2019-01-04T03:14:45.051Z,1.10
2019-01-04T03:17:12.275Z,0.90
2019-01-04T03:19:39.499Z,1.00
2019-01-04T03:22:06.737Z,1.57
2019-01-04T03:24:33.990Z,0.80
2019-01-04T03:27:01.221Z,0.90
2019-01-04T03:29:28.477Z,0.90
2019-01-04T03:31:55.714Z,0.83
2019-01-04T03:34:22.956Z,1.03
2019-01-04T03:36:50.177Z,1.30
2019-01-04T03:39:17.381Z,1.17
2019-01-04T03:41:44.649Z,1.20
2019-01-04T03:44:11.869Z,1.00
2019-01-04T03:46:39.120Z,1.03
2019-01-04T03:49:06.356Z,1.30
2019-01-04T03:51:33.628Z,1.20
2019-01-04T03:54:00.858Z,1.07
2019-01-04T03:56:28.055Z,1.10
2019-01-04T03:58:55.310Z,1.20
2019-01-04T04:01:22.573Z,1.20
2019-01-04T04:03:49.823Z,1.20
2019-01-04T04:06:17.093Z,1.10
2019-01-04T04:08:44.364Z,1.20
2019-01-04T04:11:11.607Z,1.00
2019-01-04T04:13:38.905Z,1.10
2019-01-04T04:16:06.155Z,1.00
2019-01-04T04:18:33.408Z,1.10
2019-01-04T04:21:00.619Z,1.10
2019-01-04T04:23:27.854Z,1.40
2019-01-04T04:25:57.166Z,1.37
2019-01-04T04:28:24.220Z,1.47
2019-01-04T04:30:51.456Z,1.67
2019-01-04T04:33:18.683Z,1.43
2019-01-04T04:35:46.023Z,2.00
2019-01-04T04:38:13.246Z,2.00
2019-01-04T04:40:40.474Z,1.60
2019-01-04T04:43:07.712Z,1.90
2019-01-04T04:45:34.936Z,1.77
2019-01-04T04:48:02.234Z,1.50
2019-01-04T04:50:29.445Z,1.57
2019-01-04T04:52:56.713Z,1.80
2019-01-04T04:55:24.021Z,1.53
2019-01-04T04:57:51.304Z,1.83
2019-01-04T05:00:18.553Z,1.63
2019-01-04T05:02:45.827Z,1.70
2019-01-04T05:05:13.029Z,1.60
2019-01-04T05:07:40.260Z,2.60
2019-01-04T05:10:07.507Z,2.00
2019-01-04T05:12:34.738Z,1.70
2019-01-04T05:15:01.982Z,1.50
2019-01-04T05:17:29.209Z,2.07
2019-01-04T05:19:56.449Z,2.00
2019-01-04T05:22:23.709Z,2.10
2019-01-04T05:24:51.004Z,2.70
2019-01-04T05:27:18.329Z,1.90
2019-01-04T05:29:45.539Z,1.80
2019-01-04T05:32:12.745Z,2.10
2019-01-04T05:34:39.998Z,2.23
2019-01-04T05:37:07.220Z,2.70
2019-01-04T05:39:34.444Z,2.43
2019-01-04T05:42:01.726Z,2.60
2019-01-04T05:44:28.951Z,2.43
2019-01-04T05:46:56.172Z,2.30
2019-01-04T05:49:23.481Z,2.63
2019-01-04T05:51:50.699Z,2.40
2019-01-04T05:54:17.934Z,2.50
2019-01-04T05:56:45.201Z,1.93
2019-01-04T05:59:12.524Z,2.30
2019-01-04T06:01:39.740Z,2.20
2019-01-04T06:04:07.011Z,2.17
2019-01-04T06:06:34.251Z,2.07
2019-01-04T06:09:01.476Z,2.40
2019-01-04T06:11:28.721Z,2.10
2019-01-04T06:13:55.947Z,2.37
2019-01-04T06:16:23.194Z,1.90
2019-01-04T06:18:50.391Z,1.73
2019-01-04T06:21:17.610Z,1.80
2019-01-04T06:23:46.067Z,1.93
2019-01-04T06:26:13.293Z,2.20
2019-01-04T06:28:40.545Z,2.00
2019-01-04T06:31:07.774Z,1.67
2019-01-04T06:33:35.069Z,1.53
2019-01-04T06:36:02.271Z,1.70
2019-01-04T06:38:29.506Z,1.60
2019-01-04T06:40:56.756Z,2.20
2019-01-04T06:43:23.971Z,1.77
2019-01-04T06:45:51.236Z,1.90
2019-01-04T06:48:18.477Z,2.70
2019-01-04T06:50:45.696Z,1.97
2019-01-04T06:53:12.985Z,2.23
2019-01-04T06:55:57.217Z,2.20
2019-01-04T06:58:24.479Z,3.00
2019-01-04T07:00:51.737Z,2.33
2019-01-04T07:03:19.010Z,2.20
2019-01-04T07:05:46.242Z,2.33
2019-01-04T07:08:13.452Z,2.13
2019-01-04T07:10:40.708Z,2.10
2019-01-04T07:13:07.944Z,1.87
2019-01-04T07:15:35.162Z,2.80
2019-01-04T07:18:02.654Z,2.73
2019-01-04T07:20:29.887Z,2.70
2019-01-04T07:22:57.164Z,2.57
2019-01-04T07:25:24.404Z,2.33
2019-01-04T07:27:51.631Z,1.90
2019-01-04T07:30:18.871Z,2.07
2019-01-04T07:32:46.143Z,2.13
2019-01-04T07:35:13.418Z,2.47
2019-01-04T07:37:40.687Z,1.83
2019-01-04T07:40:08.239Z,2.20
2019-01-04T07:42:35.779Z,2.30
2019-01-04T07:45:03.580Z,2.97
2019-01-04T07:47:30.802Z,2.50
2019-01-04T07:49:58.314Z,2.20
2019-01-04T07:52:25.934Z,2.30
2019-01-04T07:54:53.188Z,3.00
2019-01-04T07:57:20.439Z,2.93
2019-01-04T07:59:48.138Z,3.20
2019-01-04T08:02:44.755Z,2.90
2019-01-04T08:05:14.564Z,2.70
2019-01-04T08:07:41.827Z,2.80
2019-01-04T08:10:10.172Z,3.10
2019-01-04T08:12:37.450Z,3.70
2019-01-04T08:15:05.436Z,3.20
2019-01-04T08:17:32.664Z,4.17
2019-01-04T08:19:59.895Z,2.97
2019-01-04T08:22:27.142Z,3.23
2019-01-04T08:24:54.383Z,3.60
2019-01-04T08:27:21.629Z,3.30
2019-01-04T08:29:48.928Z,3.50
2019-01-04T08:32:16.141Z,3.47
2019-01-04T08:34:43.353Z,3.97
2019-01-04T08:37:10.669Z,3.37
2019-01-04T08:39:37.880Z,3.30
2019-01-04T08:42:05.160Z,3.93
2019-01-04T08:44:32.410Z,3.80
2019-01-04T08:46:59.669Z,3.50
2019-01-04T08:49:26.907Z,3.43
2019-01-04T08:51:54.177Z,3.90
2019-01-04T08:54:21.374Z,3.60
2019-01-04T08:56:48.636Z,3.50
2019-01-04T08:59:15.864Z,3.90
2019-01-04T09:01:43.116Z,3.80
2019-01-04T09:04:10.383Z,3.90
2019-01-04T09:06:37.606Z,3.80
2019-01-04T09:09:06.590Z,4.60
2019-01-04T09:11:33.855Z,4.30
2019-01-04T09:14:01.112Z,3.77
2019-01-04T09:16:28.378Z,3.53
2019-01-04T09:18:55.591Z,3.50
2019-01-04T09:21:22.817Z,3.77
2019-01-04T09:23:50.075Z,3.90
2019-01-04T09:26:17.325Z,4.63
2019-01-04T09:28:44.577Z,3.50
2019-01-04T09:31:11.830Z,3.20
2019-01-04T09:33:39.065Z,3.40
2019-01-04T09:36:06.342Z,3.53
2019-01-04T09:38:33.583Z,3.93
2019-01-04T09:41:42.422Z,3.73
2019-01-04T09:44:09.662Z,3.20
2019-01-04T09:46:36.918Z,2.90
2019-01-04T09:49:04.209Z,3.67
2019-01-04T09:51:31.459Z,3.73
2019-01-04T09:53:59.477Z,4.13
2019-01-04T09:56:26.721Z,3.90
2019-01-04T09:58:55.848Z,4.20
2019-01-04T10:01:23.465Z,4.03
2019-01-04T10:03:50.685Z,4.70
2019-01-04T10:06:17.942Z,4.70
2019-01-04T10:08:45.191Z,4.87
2019-01-04T10:11:12.512Z,4.57
2019-01-04T10:13:39.746Z,4.77
2019-01-04T10:16:06.995Z,5.50
2019-01-04T10:18:34.260Z,4.70
2019-01-04T10:21:01.485Z,4.07
2019-01-04T10:23:28.761Z,4.20
2019-01-04T10:25:55.997Z,3.97
2019-01-04T10:28:23.213Z,4.00
2019-01-04T10:30:50.474Z,3.67
2019-01-04T10:33:17.719Z,3.90
2019-01-04T10:35:44.991Z,3.50
2019-01-04T10:38:12.225Z,4.40
2019-01-04T10:40:39.528Z,3.73
2019-01-04T10:43:06.743Z,3.23
2019-01-04T10:45:33.995Z,3.30
2019-01-04T10:48:01.348Z,3.13
2019-01-04T10:50:28.605Z,3.40
2019-01-04T10:52:58.280Z,3.00
2019-01-04T10:55:25.531Z,2.97
2019-01-04T10:57:52.796Z,2.63
2019-01-04T11:00:20.143Z,3.17
2019-01-04T11:02:50.716Z,3.30
2019-01-04T11:05:18.040Z,2.87
2019-01-04T11:07:45.255Z,3.80
2019-01-04T11:10:12.505Z,3.30
2019-01-04T11:12:39.758Z,3.00
2019-01-04T11:15:07.050Z,3.03
2019-01-04T11:17:36.761Z,3.77
2019-01-04T11:20:04.391Z,2.87
2019-01-04T11:22:57.497Z,2.87
2019-01-04T11:26:07.112Z,2.70
2019-01-04T11:28:59.530Z,2.90
2019-01-04T11:31:57.990Z,2.90
2019-01-04T11:35:25.218Z,2.50
2019-01-04T11:38:10.768Z,3.27
2019-01-04T11:41:09.438Z,2.70
2019-01-04T11:44:29.041Z,3.67
2019-01-04T11:47:25.017Z,2.77
2019-01-04T11:50:03.966Z,2.97
2019-01-04T11:52:39.440Z,3.07
2019-01-04T11:55:06.755Z,3.17
2019-01-04T11:57:34.550Z,2.90
2019-01-04T12:00:01.973Z,2.17
2019-01-04T12:02:29.323Z,2.80
2019-01-04T12:04:59.954Z,3.07
2019-01-04T12:07:27.201Z,2.90
2019-01-04T12:09:54.472Z,3.00
2019-01-04T12:12:21.695Z,2.53
2019-01-04T12:14:48.915Z,2.80
2019-01-04T12:17:16.161Z,2.40
2019-01-04T12:19:43.385Z,2.57
2019-01-04T12:22:10.624Z,2.50
2019-01-04T12:24:37.893Z,2.17
2019-01-04T12:27:05.103Z,2.30
2019-01-04T12:29:32.559Z,2.60
2019-01-04T12:31:59.844Z,2.90
2019-01-04T12:34:27.051Z,3.13
2019-01-04T12:36:54.256Z,2.83
2019-01-04T12:39:21.503Z,3.40
2019-01-04T12:41:48.723Z,3.40
2019-01-04T12:44:16.003Z,3.37
2019-01-04T12:46:43.225Z,3.20
2019-01-04T12:49:10.457Z,3.87
2019-01-04T12:51:37.699Z,3.37
2019-01-04T12:54:04.962Z,2.90
2019-01-04T12:56:32.208Z,2.73
2019-01-04T12:58:59.511Z,2.90
2019-01-04T13:01:26.815Z,2.83
2019-01-04T13:03:54.048Z,3.10
2019-01-04T13:06:21.317Z,3.37
2019-01-04T13:08:48.518Z,3.10
2019-01-04T13:11:15.725Z,3.37
2019-01-04T13:13:43.063Z,3.00
2019-01-04T13:16:10.300Z,3.30
2019-01-04T13:18:37.560Z,3.60
2019-01-04T13:21:04.772Z,3.33
2019-01-04T13:23:31.989Z,2.93
2019-01-04T13:25:59.261Z,3.20
2019-01-04T13:28:26.503Z,2.93
2019-01-04T13:30:53.778Z,3.30
2019-01-04T13:33:21.030Z,2.80
2019-01-04T13:35:48.236Z,2.60
2019-01-04T13:38:20.032Z,2.50
2019-01-04T13:40:44.772Z,3.17
2019-01-04T13:43:12.053Z,3.23
2019-01-04T13:45:39.269Z,2.80
2019-01-04T13:48:06.523Z,2.90
2019-01-04T13:50:34.105Z,3.40
2019-01-04T13:53:01.330Z,2.80
2019-01-04T13:55:28.597Z,2.97
2019-01-04T13:57:55.821Z,2.87
2019-01-04T14:00:23.096Z,2.53
2019-01-04T14:02:50.381Z,3.00
2019-01-04T14:05:17.609Z,3.20
2019-01-04T14:07:44.846Z,3.40
2019-01-04T14:10:12.116Z,3.53
2019-01-04T14:12:39.518Z,3.63
2019-01-04T14:15:08.277Z,2.93
2019-01-04T14:17:35.652Z,3.40
2019-01-04T14:20:02.915Z,3.53
2019-01-04T14:22:30.184Z,3.50
2019-01-04T14:24:57.413Z,3.43
2019-01-04T14:27:24.636Z,3.40
2019-01-04T14:29:51.879Z,3.43
2019-01-04T14:32:19.093Z,3.97
2019-01-04T14:34:46.296Z,4.50
2019-01-04T14:37:13.551Z,11.23
2019-01-04T14:39:43.538Z,6.93
2019-01-04T14:42:10.810Z,9.97
2019-01-04T14:44:38.056Z,5.93
2019-01-04T14:47:05.260Z,6.27
2019-01-04T14:49:32.524Z,6.80
2019-01-04T14:51:59.813Z,4.80
2019-01-04T14:54:27.033Z,4.77
2019-01-04T14:56:54.664Z,5.63
2019-01-04T14:59:21.925Z,4.83
2019-01-04T15:01:49.307Z,4.73
2019-01-04T15:04:16.560Z,4.30
2019-01-04T15:06:43.768Z,5.97
2019-01-04T15:09:11.035Z,7.53
2019-01-04T15:11:38.327Z,4.83
2019-01-04T15:14:05.561Z,6.73
2019-01-04T15:16:32.810Z,4.83
2019-01-04T15:19:01.401Z,3.60
2019-01-04T15:21:28.677Z,27.80
2019-01-04T15:23:55.905Z,38.53
2019-01-04T15:26:23.173Z,13.90
2019-01-04T15:28:50.397Z,14.63
2019-01-04T15:31:17.656Z,6.23
2019-01-04T15:33:44.869Z,4.23
2019-01-04T15:36:12.093Z,8.17
2019-01-04T15:38:39.335Z,4.23
2019-01-04T15:41:06.567Z,4.53
2019-01-04T15:43:33.812Z,3.20
2019-01-04T15:46:01.075Z,3.30
2019-01-04T15:48:28.303Z,3.90
2019-01-04T15:50:55.559Z,3.60
2019-01-04T15:53:22.814Z,3.70
2019-01-04T15:55:50.025Z,3.37
2019-01-04T15:58:17.316Z,3.47
2019-01-04T16:00:44.551Z,4.13
2019-01-04T16:03:11.859Z,3.13
2019-01-04T16:05:39.093Z,3.50
2019-01-04T16:08:06.343Z,3.90
2019-01-04T16:10:33.568Z,3.07
2019-01-04T16:13:00.781Z,4.37
2019-01-04T16:15:28.419Z,3.40
2019-01-04T16:17:55.643Z,3.10
2019-01-04T16:20:22.977Z,3.33
2019-01-04T16:22:50.257Z,3.10
2019-01-04T16:25:19.939Z,3.60
2019-01-04T16:27:47.207Z,3.43
2019-01-04T16:30:14.478Z,3.20
2019-01-04T16:32:42.002Z,3.20
2019-01-04T16:35:09.379Z,3.10
2019-01-04T16:37:36.636Z,3.13
2019-01-04T16:40:05.659Z,3.23
2019-01-04T16:42:32.949Z,2.97
2019-01-04T16:45:00.200Z,2.90
2019-01-04T16:47:28.018Z,3.17
2019-01-04T16:49:55.303Z,2.70
2019-01-04T16:52:23.756Z,2.57
2019-01-04T16:54:50.978Z,3.13
2019-01-04T16:57:18.184Z,2.87
2019-01-04T16:59:45.419Z,2.80
2019-01-04T17:02:12.822Z,3.20
2019-01-04T17:04:40.115Z,3.13
2019-01-04T17:07:07.366Z,3.33
2019-01-04T17:09:34.669Z,3.23
2019-01-04T17:12:03.217Z,2.63
2019-01-04T17:14:31.435Z,2.83
2019-01-04T17:16:58.696Z,2.33
2019-01-04T17:19:25.915Z,2.67
2019-01-04T17:21:53.114Z,2.70
2019-01-04T17:24:20.352Z,2.70
2019-01-04T17:26:47.574Z,2.60
2019-01-04T17:29:14.834Z,2.60
2019-01-04T17:31:42.089Z,2.50
2019-01-04T17:34:09.368Z,3.60
2019-01-04T17:36:36.756Z,3.30
2019-01-04T17:39:06.253Z,2.57
2019-01-04T17:41:33.683Z,2.40
2019-01-04T17:44:00.946Z,3.40
2019-01-04T17:46:28.342Z,2.40
2019-01-04T17:48:55.566Z,2.57
2019-01-04T17:51:22.920Z,2.93
2019-01-04T17:53:50.317Z,2.90
2019-01-04T17:56:17.572Z,2.93
2019-01-04T17:58:44.908Z,3.03
2019-01-04T18:01:13.609Z,2.60
2019-01-04T18:03:41.033Z,3.83
2019-01-04T18:06:08.284Z,3.30
2019-01-04T18:08:35.547Z,3.20
2019-01-04T18:11:02.770Z,2.70
2019-01-04T18:13:30.011Z,2.80
2019-01-04T18:15:57.265Z,2.70
2019-01-04T18:18:24.525Z,3.17
2019-01-04T18:20:51.842Z,2.50
2019-01-04T18:23:19.158Z,1.93
2019-01-04T18:25:46.398Z,2.73
2019-01-04T18:28:13.667Z,2.60
2019-01-04T18:30:40.910Z,2.80
2019-01-04T18:33:08.199Z,2.27
2019-01-04T18:35:35.472Z,2.83
2019-01-04T18:38:02.755Z,2.63
2019-01-04T18:40:29.974Z,2.40
2019-01-04T18:42:57.236Z,2.43
2019-01-04T18:45:24.476Z,2.40
2019-01-04T18:47:51.752Z,2.40
2019-01-04T18:50:21.575Z,2.50
2019-01-04T18:52:48.851Z,2.63
2019-01-04T18:55:16.347Z,2.87
2019-01-04T18:57:43.592Z,3.27
2019-01-04T19:00:11.460Z,2.83
2019-01-04T19:02:38.723Z,2.33
2019-01-04T19:05:06.319Z,2.90
2019-01-04T19:07:33.556Z,2.70
2019-01-04T19:10:00.822Z,3.00
2019-01-04T19:12:28.063Z,3.00
2019-01-04T19:14:55.368Z,2.50
2019-01-04T19:17:22.613Z,2.67
2019-01-04T19:19:49.870Z,2.60
2019-01-04T19:22:17.118Z,2.60
2019-01-04T19:24:44.378Z,3.17
2019-01-04T19:27:11.623Z,3.40
2019-01-04T19:29:38.895Z,3.33
2019-01-04T19:32:06.135Z,2.80
2019-01-04T19:34:33.415Z,3.27
2019-01-04T19:37:00.661Z,3.27
2019-01-04T19:39:27.902Z,2.70
2019-01-04T19:41:55.154Z,4.00
2019-01-04T19:44:22.442Z,3.00
2019-01-04T19:46:49.708Z,3.27
2019-01-04T19:49:16.929Z,3.53
2019-01-04T19:51:44.204Z,3.37
2019-01-04T19:54:11.472Z,3.83
2019-01-04T19:56:38.702Z,3.20
2019-01-04T19:59:05.919Z,3.23
2019-01-04T20:01:33.175Z,3.00
2019-01-04T20:04:00.408Z,3.50
2019-01-04T20:07:32.810Z,3.00
2019-01-04T20:11:20.143Z,3.07
2019-01-04T20:14:59.056Z,3.10
2019-01-04T20:17:50.518Z,2.73
2019-01-04T20:20:49.012Z,2.80
2019-01-04T20:23:41.655Z,2.80
2019-01-04T20:26:27.107Z,3.20
2019-01-04T20:29:32.203Z,2.77
2019-01-04T20:32:24.918Z,2.70
2019-01-04T20:35:14.715Z,2.97
2019-01-04T20:38:01.492Z,3.10
2019-01-04T20:40:57.444Z,2.77
2019-01-04T20:43:50.036Z,3.33
2019-01-04T20:46:45.786Z,3.43
2019-01-04T20:49:38.503Z,3.20
2019-01-04T20:52:43.232Z,3.20
2019-01-04T20:55:30.054Z,3.33
2019-01-04T20:58:13.027Z,3.60
2019-01-04T21:00:59.788Z,2.97
2019-01-04T21:03:46.972Z,4.37
2019-01-04T21:06:39.367Z,3.23
2019-01-04T21:09:31.782Z,3.50
2019-01-04T21:12:13.839Z,3.67
2019-01-04T21:15:05.225Z,4.47
2019-01-04T21:17:58.081Z,3.43
2019-01-04T21:20:45.647Z,3.23
2019-01-04T21:23:36.340Z,3.37
2019-01-04T21:26:25.975Z,3.60
2019-01-04T21:29:14.373Z,4.10
2019-01-04T21:32:09.844Z,3.23
2019-01-04T21:34:59.276Z,3.30
2019-01-04T21:37:51.953Z,3.00
2019-01-04T21:40:37.221Z,3.00
2019-01-04T21:43:22.763Z,2.90
2019-01-04T21:46:12.408Z,2.67
2019-01-04T21:48:51.050Z,2.97
2019-01-04T21:51:36.216Z,2.50
2019-01-04T21:54:31.704Z,3.03
2019-01-04T21:57:17.167Z,3.40
2019-01-04T21:59:58.700Z,3.20
2019-01-04T22:02:34.351Z,3.93
2019-01-04T22:05:27.062Z,3.37
2019-01-04T22:08:12.378Z,3.30
2019-01-04T22:11:14.260Z,4.00
2019-01-04T22:13:59.799Z,3.47
2019-01-04T22:16:55.228Z,4.33
2019-01-04T22:19:40.466Z,3.80
2019-01-04T22:22:25.815Z,3.30
2019-01-04T22:25:11.270Z,2.93
2019-01-04T22:27:56.618Z,3.60
2019-01-04T22:30:46.000Z,3.83
2019-01-04T22:33:38.541Z,3.80
2019-01-04T22:36:25.316Z,4.27
2019-01-04T22:39:10.763Z,3.73
2019-01-04T22:42:09.708Z,3.63
2019-01-04T22:45:09.900Z,3.93
2019-01-04T22:47:59.705Z,4.50
2019-01-04T22:50:45.411Z,4.63
2019-01-04T22:53:30.598Z,3.97
2019-01-04T22:56:16.374Z,4.43
2019-01-04T22:59:08.993Z,4.43
2019-01-04T23:02:04.693Z,3.83
2019-01-04T23:04:49.339Z,4.40
2019-01-04T23:07:36.150Z,4.40
2019-01-04T23:10:26.704Z,4.20
2019-01-04T23:13:28.791Z,4.40
2019-01-04T23:16:13.915Z,3.97
2019-01-04T23:19:03.567Z,4.33
2019-01-04T23:22:09.306Z,4.43
2019-01-04T23:24:55.011Z,4.17
2019-01-04T23:27:44.369Z,4.53
2019-01-04T23:30:29.591Z,5.00
2019-01-04T23:33:16.356Z,4.40
2019-01-04T23:35:58.797Z,5.67
2019-01-04T23:38:40.757Z,4.53
2019-01-04T23:41:22.383Z,4.40
2019-01-04T23:44:18.084Z,3.70
2019-01-04T23:47:07.266Z,4.70
2019-01-04T23:50:03.134Z,4.87
2019-01-04T23:52:43.782Z,4.20
2019-01-04T23:55:33.448Z,4.33
2019-01-04T23:58:18.307Z,4.40
